createdAt,value
2023-05-08T00:00:43.449Z,24.80
2023-05-08T00:03:10.336Z,26.00
2023-05-08T00:05:37.590Z,25.37
2023-05-08T00:08:04.386Z,27.73
2023-05-08T00:10:31.116Z,27.07
2023-05-08T00:12:57.892Z,27.50
2023-05-08T00:15:24.645Z,26.70
2023-05-08T00:17:51.520Z,25.00
2023-05-08T00:20:18.358Z,26.17
2023-05-08T00:22:45.093Z,25.97
2023-05-08T00:25:11.824Z,27.27
2023-05-08T00:27:38.715Z,25.60
2023-05-08T00:30:07.147Z,25.97
2023-05-08T00:32:33.904Z,25.80
2023-05-08T00:35:00.735Z,26.80
2023-05-08T00:37:27.591Z,25.50
2023-05-08T00:39:54.303Z,25.50
2023-05-08T00:42:21.168Z,27.23
2023-05-08T00:44:48.164Z,25.90
2023-05-08T00:47:14.840Z,26.70
2023-05-08T00:49:41.694Z,25.50
2023-05-08T00:52:08.826Z,26.27
2023-05-08T00:54:39.662Z,27.70
2023-05-08T00:57:07.002Z,26.67
2023-05-08T00:59:34.756Z,28.10
2023-05-08T01:02:02.033Z,26.77
2023-05-08T01:04:30.608Z,26.60
2023-05-08T01:06:57.712Z,27.33
2023-05-08T01:09:24.454Z,27.30
2023-05-08T01:11:56.531Z,28.37
2023-05-08T01:14:32.840Z,28.87
2023-05-08T01:17:07.782Z,28.30
2023-05-08T01:19:49.943Z,29.73
2023-05-08T01:22:16.628Z,30.33
2023-05-08T01:24:43.671Z,28.83
2023-05-08T01:27:10.549Z,28.30
2023-05-08T01:29:40.276Z,28.33
2023-05-08T01:32:26.737Z,27.93
2023-05-08T01:34:59.385Z,32.37
2023-05-08T01:37:30.300Z,31.30
2023-05-08T01:40:16.165Z,29.57
2023-05-08T01:43:03.705Z,28.77
2023-05-08T01:45:36.850Z,30.20
2023-05-08T01:48:06.344Z,28.57
2023-05-08T01:50:40.890Z,29.67
2023-05-08T01:53:09.897Z,28.03
2023-05-08T01:55:37.705Z,29.60
2023-05-08T01:58:07.882Z,28.97
2023-05-08T02:00:34.886Z,30.13
2023-05-08T02:03:02.652Z,31.97
2023-05-08T02:05:29.870Z,29.83
2023-05-08T02:07:57.158Z,31.53
2023-05-08T02:10:26.807Z,30.47
2023-05-08T02:12:54.412Z,31.87
2023-05-08T02:15:22.121Z,31.70
2023-05-08T02:17:49.638Z,31.43
2023-05-08T02:20:16.779Z,29.37
2023-05-08T02:22:44.731Z,30.53
2023-05-08T02:25:14.674Z,28.67
2023-05-08T02:27:44.235Z,30.50
2023-05-08T02:30:14.754Z,28.53
2023-05-08T02:32:44.122Z,27.17
2023-05-08T02:35:15.136Z,26.93
2023-05-08T02:37:47.421Z,27.97
2023-05-08T02:40:15.072Z,28.17
2023-05-08T02:42:42.112Z,25.67
2023-05-08T02:45:10.218Z,26.57
2023-05-08T02:47:46.301Z,25.37
2023-05-08T02:50:36.787Z,27.23
2023-05-08T02:53:06.607Z,25.13
2023-05-08T02:55:40.171Z,29.57
2023-05-08T02:58:20.588Z,26.30
2023-05-08T03:00:56.819Z,29.10
2023-05-08T03:03:25.977Z,28.97
2023-05-08T03:05:57.911Z,32.20
2023-05-08T03:08:29.925Z,29.67
2023-05-08T03:10:59.053Z,31.70
2023-05-08T03:13:27.754Z,29.57
2023-05-08T03:15:56.556Z,30.87
2023-05-08T03:18:27.120Z,30.37
2023-05-08T03:20:55.247Z,28.97
2023-05-08T03:23:23.550Z,28.87
2023-05-08T03:25:51.499Z,29.57
2023-05-08T03:28:19.572Z,34.13
2023-05-08T03:30:47.210Z,33.17
2023-05-08T03:33:18.051Z,32.40
2023-05-08T03:35:45.315Z,35.67
2023-05-08T03:38:13.464Z,30.67
2023-05-08T03:40:45.650Z,33.40
2023-05-08T03:43:13.494Z,30.40
2023-05-08T03:45:41.128Z,33.13
2023-05-08T03:48:08.768Z,32.53
2023-05-08T03:50:36.840Z,32.00
2023-05-08T03:53:05.607Z,32.37
2023-05-08T03:55:33.370Z,33.10
2023-05-08T03:58:08.188Z,35.73
2023-05-08T04:00:34.994Z,36.37
2023-05-08T04:03:16.719Z,35.20
2023-05-08T04:05:48.065Z,35.30
2023-05-08T04:08:21.657Z,39.27
2023-05-08T04:10:50.954Z,37.37
2023-05-08T04:13:20.157Z,38.60
2023-05-08T04:16:01.003Z,40.97
2023-05-08T04:18:32.072Z,37.27
2023-05-08T04:21:03.410Z,37.83
2023-05-08T04:23:31.199Z,37.70
2023-05-08T04:25:58.398Z,40.40
2023-05-08T04:28:25.210Z,38.23
2023-05-08T04:30:52.494Z,37.30
2023-05-08T04:33:19.855Z,33.93
2023-05-08T04:35:47.085Z,31.33
2023-05-08T04:38:14.359Z,29.43
2023-05-08T04:40:42.028Z,28.50
2023-05-08T04:43:10.690Z,32.77
2023-05-08T04:45:37.908Z,31.00
2023-05-08T04:48:05.440Z,30.57
2023-05-08T04:50:32.305Z,32.30
2023-05-08T04:52:59.401Z,30.80
2023-05-08T04:55:26.601Z,30.77
2023-05-08T04:57:53.822Z,34.97
2023-05-08T05:00:20.989Z,30.20
2023-05-08T05:02:48.704Z,29.37
2023-05-08T05:05:15.858Z,30.53
2023-05-08T05:07:42.716Z,31.17
2023-05-08T05:10:10.940Z,29.60
2023-05-08T05:12:38.218Z,28.87
2023-05-08T05:15:05.267Z,31.63
2023-05-08T05:17:35.131Z,28.47
2023-05-08T05:20:02.535Z,26.97
2023-05-08T05:22:29.656Z,26.27
2023-05-08T05:24:56.583Z,26.50
2023-05-08T05:27:24.723Z,26.20
2023-05-08T05:29:51.730Z,27.10
2023-05-08T05:32:18.513Z,24.10
2023-05-08T05:34:45.598Z,25.63
2023-05-08T05:37:12.363Z,24.37
2023-05-08T05:39:39.311Z,26.30
2023-05-08T05:42:06.208Z,25.53
2023-05-08T05:44:33.676Z,26.07
2023-05-08T05:47:00.489Z,25.73
2023-05-08T05:49:27.348Z,25.47
2023-05-08T05:51:54.258Z,25.07
2023-05-08T05:54:21.082Z,26.73
2023-05-08T05:56:48.540Z,24.33
2023-05-08T05:59:15.671Z,23.77
2023-05-08T06:01:42.678Z,22.60
2023-05-08T06:04:09.401Z,22.70
2023-05-08T06:06:36.199Z,21.93
2023-05-08T06:09:04.498Z,22.47
2023-05-08T06:11:31.516Z,22.03
2023-05-08T06:13:58.247Z,22.33
2023-05-08T06:16:25.216Z,23.40
2023-05-08T06:18:53.007Z,22.00
2023-05-08T06:21:19.720Z,20.20
2023-05-08T06:23:46.821Z,22.87
2023-05-08T06:26:13.533Z,19.87
2023-05-08T06:28:40.369Z,19.37
2023-05-08T06:31:07.058Z,20.90
2023-05-08T06:33:33.842Z,18.77
2023-05-08T06:36:00.733Z,18.67
2023-05-08T06:38:27.541Z,18.60
2023-05-08T06:40:55.462Z,18.40
2023-05-08T06:43:22.455Z,17.50
2023-05-08T06:45:49.152Z,16.70
2023-05-08T06:48:15.941Z,16.10
2023-05-08T06:50:43.439Z,16.27
2023-05-08T06:53:10.344Z,15.67
2023-05-08T06:55:37.127Z,17.57
2023-05-08T06:58:04.091Z,16.37
2023-05-08T07:00:31.188Z,17.50
2023-05-08T07:02:58.509Z,17.70
2023-05-08T07:05:25.324Z,18.60
2023-05-08T07:07:54.723Z,18.73
2023-05-08T07:10:22.736Z,18.40
2023-05-08T07:12:49.827Z,18.80
2023-05-08T07:15:25.583Z,18.57
2023-05-08T07:17:53.582Z,20.23
2023-05-08T07:20:21.794Z,20.63
2023-05-08T07:22:48.682Z,20.33
2023-05-08T07:25:16.370Z,20.93
2023-05-08T07:27:43.585Z,23.23
2023-05-08T07:30:10.856Z,22.47
2023-05-08T07:32:39.623Z,21.63
2023-05-08T07:35:10.349Z,22.30
2023-05-08T07:37:37.914Z,20.63
2023-05-08T07:40:04.923Z,19.37
2023-05-08T07:42:31.687Z,17.77
2023-05-08T07:44:58.363Z,19.53
2023-05-08T07:47:25.169Z,17.67
2023-05-08T07:49:51.955Z,17.38
2023-05-08T07:52:18.612Z,16.20
2023-05-08T07:54:45.419Z,16.15
2023-05-08T07:57:12.159Z,15.05
2023-05-08T07:59:38.968Z,16.95
2023-05-08T08:02:05.776Z,18.08
2023-05-08T08:04:33.320Z,16.80
2023-05-08T08:07:02.753Z,16.20
2023-05-08T08:09:29.574Z,15.98
2023-05-08T08:11:56.525Z,14.30
2023-05-08T08:14:24.016Z,14.90
2023-05-08T08:16:50.878Z,15.73
2023-05-08T08:19:17.718Z,16.23
2023-05-08T08:21:44.557Z,16.60
2023-05-08T08:24:11.617Z,15.30
2023-05-08T08:26:38.391Z,15.73
2023-05-08T08:29:05.156Z,16.33
2023-05-08T08:31:31.998Z,15.70
2023-05-08T08:33:58.733Z,15.83
2023-05-08T08:36:25.517Z,16.90
2023-05-08T08:38:52.840Z,16.00
2023-05-08T08:41:19.608Z,20.87
2023-05-08T08:43:46.421Z,22.30
2023-05-08T08:46:15.502Z,20.57
2023-05-08T08:48:44.063Z,21.80
2023-05-08T08:51:14.600Z,21.10
2023-05-08T08:53:44.300Z,20.47
2023-05-08T08:56:11.892Z,20.63
2023-05-08T08:58:43.978Z,22.67
2023-05-08T09:01:14.835Z,22.07
2023-05-08T09:03:41.862Z,22.10
2023-05-08T09:06:08.969Z,23.73
2023-05-08T09:08:36.074Z,21.83
2023-05-08T09:11:02.930Z,21.07
2023-05-08T09:13:30.091Z,22.20
2023-05-08T09:16:00.124Z,19.27
2023-05-08T09:18:27.779Z,21.37
2023-05-08T09:20:54.517Z,18.43
2023-05-08T09:23:21.304Z,20.77
2023-05-08T09:25:48.584Z,17.93
2023-05-08T09:28:19.274Z,18.13
2023-05-08T09:30:53.475Z,16.40
2023-05-08T09:33:21.412Z,17.30
2023-05-08T09:35:51.200Z,16.27
2023-05-08T09:38:38.266Z,15.47
2023-05-08T09:41:09.116Z,16.10
2023-05-08T09:43:36.090Z,16.93
2023-05-08T09:46:22.385Z,16.33
2023-05-08T09:48:49.607Z,15.17
2023-05-08T09:51:16.502Z,15.67
2023-05-08T09:53:43.640Z,16.83
2023-05-08T09:56:10.498Z,15.77
2023-05-08T09:58:41.202Z,14.93
2023-05-08T10:01:08.463Z,16.27
2023-05-08T10:03:48.390Z,24.80
2023-05-08T10:06:15.427Z,26.03
2023-05-08T10:08:42.430Z,25.57
2023-05-08T10:11:22.127Z,23.97
2023-05-08T10:13:49.481Z,25.53
2023-05-08T10:16:17.406Z,24.30
2023-05-08T10:18:48.913Z,22.83
2023-05-08T10:21:16.535Z,23.87
2023-05-08T10:23:43.971Z,22.77
2023-05-08T10:26:14.822Z,25.03
2023-05-08T10:28:49.976Z,22.57
2023-05-08T10:31:18.107Z,23.80
2023-05-08T10:33:45.782Z,21.63
2023-05-08T10:36:13.532Z,19.17
2023-05-08T10:38:41.492Z,20.30
2023-05-08T10:41:09.013Z,17.97
2023-05-08T10:43:36.338Z,20.47
2023-05-08T10:46:08.563Z,20.93
2023-05-08T10:48:54.138Z,19.30
2023-05-08T10:51:33.003Z,17.67
2023-05-08T10:54:05.035Z,21.17
2023-05-08T10:56:31.784Z,18.27
2023-05-08T10:58:59.149Z,17.90
2023-05-08T11:01:26.570Z,18.20
2023-05-08T11:03:55.560Z,17.10
2023-05-08T11:06:42.021Z,18.27
2023-05-08T11:09:09.095Z,18.83
2023-05-08T11:11:38.671Z,15.97
2023-05-08T11:14:08.677Z,17.90
2023-05-08T11:16:53.768Z,19.33
2023-05-08T11:19:27.182Z,21.23
2023-05-08T11:22:12.875Z,28.33
2023-05-08T11:24:40.697Z,34.20
2023-05-08T11:27:07.962Z,32.83
2023-05-08T11:29:36.294Z,30.83
2023-05-08T11:32:03.195Z,43.70
2023-05-08T11:34:42.551Z,41.87
2023-05-08T11:37:10.321Z,69.77
2023-05-08T11:39:37.226Z,53.73
2023-05-08T11:42:22.862Z,58.80
2023-05-08T11:44:49.811Z,47.53
2023-05-08T11:47:18.978Z,46.53
2023-05-08T11:49:45.921Z,48.70
2023-05-08T11:52:12.703Z,55.47
2023-05-08T11:54:39.481Z,56.67
2023-05-08T11:57:06.186Z,51.40
2023-05-08T11:59:35.343Z,46.47
2023-05-08T12:02:08.595Z,42.50
2023-05-08T12:04:48.616Z,43.07
2023-05-08T12:07:16.643Z,52.07
2023-05-08T12:09:43.987Z,53.33
2023-05-08T12:12:10.798Z,43.93
2023-05-08T12:14:37.711Z,42.10
2023-05-08T12:17:04.442Z,44.87
2023-05-08T12:19:31.236Z,46.67
2023-05-08T12:21:58.587Z,48.17
2023-05-08T12:24:26.463Z,50.70
2023-05-08T12:26:54.629Z,42.53
2023-05-08T12:29:22.824Z,45.97
2023-05-08T12:31:50.082Z,45.47
2023-05-08T12:34:17.191Z,42.97
2023-05-08T12:36:43.950Z,43.93
2023-05-08T12:39:15.097Z,83.57
2023-05-08T12:41:52.113Z,47.23
2023-05-08T12:44:26.184Z,42.33
2023-05-08T12:46:54.192Z,43.37
2023-05-08T12:49:28.879Z,37.73
2023-05-08T12:52:02.319Z,37.97
2023-05-08T12:54:36.339Z,36.40
2023-05-08T12:57:08.828Z,32.90
2023-05-08T12:59:35.621Z,34.27
2023-05-08T13:02:02.392Z,30.97
2023-05-08T13:04:29.743Z,30.03
2023-05-08T13:06:57.052Z,27.63
2023-05-08T13:09:23.762Z,30.77
2023-05-08T13:11:50.461Z,36.00
2023-05-08T13:14:17.235Z,93.13
2023-05-08T13:16:51.884Z,27.20
2023-05-08T13:19:19.365Z,27.17
2023-05-08T13:21:47.849Z,28.17
2023-05-08T13:24:15.295Z,29.63
2023-05-08T13:26:42.289Z,27.00
2023-05-08T13:29:09.023Z,23.17
2023-05-08T13:31:36.212Z,20.20
2023-05-08T13:34:03.324Z,16.70
2023-05-08T13:36:31.894Z,17.30
2023-05-08T13:38:58.683Z,12.40
2023-05-08T13:41:25.377Z,12.40
2023-05-08T13:43:52.118Z,10.83
2023-05-08T13:46:18.919Z,12.20
2023-05-08T13:48:45.664Z,11.10
2023-05-08T13:51:12.368Z,10.93
2023-05-08T13:53:39.384Z,13.90
2023-05-08T13:56:06.263Z,9.87
2023-05-08T13:58:32.987Z,10.93
2023-05-08T14:01:07.526Z,10.33
2023-05-08T14:03:41.436Z,17.13
2023-05-08T14:06:08.657Z,11.50
2023-05-08T14:08:44.720Z,10.90
2023-05-08T14:11:12.793Z,9.17
2023-05-08T14:13:39.547Z,11.47
2023-05-08T14:16:08.765Z,9.40
2023-05-08T14:18:35.761Z,10.00
2023-05-08T14:21:02.456Z,11.20
2023-05-08T14:23:29.690Z,13.53
2023-05-08T14:25:56.438Z,11.27
2023-05-08T14:28:24.924Z,10.73
2023-05-08T14:30:51.607Z,12.30
2023-05-08T14:33:19.588Z,10.67
2023-05-08T14:35:48.424Z,10.97
2023-05-08T14:38:15.235Z,10.97
2023-05-08T14:40:42.154Z,10.77
2023-05-08T14:43:08.936Z,11.83
2023-05-08T14:45:36.046Z,12.23
2023-05-08T14:48:02.827Z,12.57
2023-05-08T14:50:29.737Z,11.50
2023-05-08T14:52:56.569Z,10.73
2023-05-08T14:55:23.865Z,11.17
2023-05-08T14:57:50.759Z,10.67
2023-05-08T15:00:17.991Z,10.50
2023-05-08T15:02:45.168Z,9.43
2023-05-08T15:05:19.117Z,8.73
2023-05-08T15:07:47.287Z,8.00
2023-05-08T15:10:14.367Z,8.03
2023-05-08T15:12:41.340Z,8.90
2023-05-08T15:15:08.230Z,8.37
2023-05-08T15:17:36.628Z,8.27
2023-05-08T15:20:04.367Z,7.50
2023-05-08T15:22:31.354Z,6.87
2023-05-08T15:25:02.591Z,6.90
2023-05-08T15:27:30.501Z,6.00
2023-05-08T15:29:57.873Z,6.10
2023-05-08T15:32:24.865Z,6.20
2023-05-08T15:34:51.726Z,5.93
2023-05-08T15:37:18.880Z,5.83
2023-05-08T15:39:45.621Z,6.10
2023-05-08T15:42:12.339Z,7.63
2023-05-08T15:47:08.911Z,6.00
2023-05-08T15:49:35.711Z,5.93
2023-05-08T15:52:02.396Z,5.47
2023-05-08T15:54:29.199Z,5.13
2023-05-08T15:56:55.877Z,7.40
2023-05-08T15:59:22.641Z,5.33
2023-05-08T16:01:50.300Z,3.67
2023-05-08T16:04:18.922Z,4.27
2023-05-08T16:06:45.699Z,3.90
2023-05-08T16:09:12.432Z,4.57
2023-05-08T16:11:39.182Z,4.47
2023-05-08T16:14:06.397Z,4.50
2023-05-08T16:16:33.277Z,3.87
2023-05-08T16:19:00.275Z,4.27
2023-05-08T16:21:27.285Z,4.87
2023-05-08T16:23:54.024Z,4.77
2023-05-08T16:26:20.768Z,5.20
2023-05-08T16:28:47.567Z,4.47
2023-05-08T16:31:14.454Z,4.87
2023-05-08T16:33:41.286Z,4.97
2023-05-08T16:36:08.184Z,4.30
2023-05-08T16:38:34.917Z,5.10
2023-05-08T16:41:02.844Z,4.00
2023-05-08T16:43:29.529Z,4.10
2023-05-08T16:45:59.170Z,4.93
2023-05-08T16:48:26.897Z,4.30
2023-05-08T16:50:55.964Z,5.93
2023-05-08T16:53:22.708Z,4.00
2023-05-08T16:55:49.733Z,4.37
2023-05-08T16:58:16.451Z,4.70
2023-05-08T17:00:43.216Z,5.30
2023-05-08T17:03:09.957Z,6.27
2023-05-08T17:05:37.167Z,4.60
2023-05-08T17:08:03.883Z,6.20
2023-05-08T17:10:30.672Z,4.30
2023-05-08T17:12:57.459Z,4.40
2023-05-08T17:15:24.196Z,4.73
2023-05-08T17:17:50.965Z,5.83
2023-05-08T17:20:17.916Z,5.70
2023-05-08T17:22:44.906Z,5.77
2023-05-08T17:25:11.699Z,5.70
2023-05-08T17:27:39.053Z,5.27
2023-05-08T17:30:06.430Z,5.23
2023-05-08T17:32:33.268Z,5.17
2023-05-08T17:35:00.040Z,6.97
2023-05-08T17:37:26.772Z,5.43
2023-05-08T17:39:53.823Z,7.53
2023-05-08T17:42:20.927Z,5.67
2023-05-08T17:44:47.801Z,5.70
2023-05-08T17:47:14.552Z,6.73
2023-05-08T17:49:41.438Z,6.33
2023-05-08T17:52:08.264Z,6.27
2023-05-08T17:54:35.462Z,9.53
2023-05-08T17:57:02.356Z,6.87
2023-05-08T17:59:29.126Z,6.77
2023-05-08T18:01:55.884Z,7.57
2023-05-08T18:04:22.692Z,6.17
2023-05-08T18:06:51.764Z,6.53
2023-05-08T18:09:19.443Z,7.00
2023-05-08T18:11:46.206Z,7.57
2023-05-08T18:14:12.970Z,7.27
2023-05-08T18:16:39.834Z,7.20
2023-05-08T18:19:06.670Z,8.00
2023-05-08T18:21:33.552Z,7.93
2023-05-08T18:24:01.096Z,7.73
2023-05-08T18:26:27.901Z,10.37
2023-05-08T18:28:54.689Z,8.20
2023-05-08T18:31:21.646Z,7.87
2023-05-08T18:33:48.747Z,10.80
2023-05-08T18:36:15.559Z,8.07
2023-05-08T18:38:42.564Z,10.20
2023-05-08T18:41:09.396Z,7.27
2023-05-08T18:43:36.237Z,8.90
2023-05-08T18:46:11.235Z,7.30
2023-05-08T18:48:38.591Z,8.23
2023-05-08T18:51:05.540Z,7.60
2023-05-08T18:53:33.127Z,7.30
2023-05-08T18:56:02.359Z,7.73
2023-05-08T18:58:29.219Z,10.47
2023-05-08T19:00:56.790Z,8.63
2023-05-08T19:03:27.110Z,8.40
2023-05-08T19:05:56.939Z,7.57
2023-05-08T19:08:23.965Z,7.30
2023-05-08T19:10:50.760Z,8.37
2023-05-08T19:13:20.913Z,8.00
2023-05-08T19:15:47.713Z,7.60
2023-05-08T19:18:14.970Z,7.27
2023-05-08T19:20:41.776Z,7.93
2023-05-08T19:23:08.509Z,7.67
2023-05-08T19:25:35.439Z,7.77
2023-05-08T19:28:04.204Z,7.87
2023-05-08T19:30:30.964Z,7.57
2023-05-08T19:32:57.695Z,7.73
2023-05-08T19:35:24.527Z,7.90
2023-05-08T19:37:51.427Z,10.73
2023-05-08T19:40:20.980Z,9.30
2023-05-08T19:42:47.742Z,8.80
2023-05-08T19:45:16.418Z,8.70
2023-05-08T19:47:43.258Z,9.53
2023-05-08T19:50:12.708Z,9.00
2023-05-08T19:52:39.783Z,9.43
2023-05-08T19:55:06.841Z,9.30
2023-05-08T19:57:33.591Z,9.23
2023-05-08T20:00:00.268Z,9.80
2023-05-08T20:02:27.097Z,12.13
2023-05-08T20:05:31.260Z,9.63
2023-05-08T20:07:40.958Z,9.77
2023-05-08T20:10:07.911Z,9.27
2023-05-08T20:12:34.602Z,8.80
2023-05-08T20:15:01.365Z,11.17
2023-05-08T20:17:28.162Z,9.63
2023-05-08T20:19:55.020Z,10.67
2023-05-08T20:22:21.871Z,10.50
2023-05-08T20:24:48.584Z,11.07
2023-05-08T20:27:15.481Z,10.33
2023-05-08T20:29:42.354Z,10.10
2023-05-08T20:32:14.700Z,10.47
2023-05-08T20:34:41.989Z,12.47
2023-05-08T20:37:09.201Z,9.70
2023-05-08T20:39:35.869Z,9.83
2023-05-08T20:42:02.602Z,10.10
2023-05-08T20:44:29.397Z,9.87
2023-05-08T20:46:56.162Z,11.63
2023-05-08T20:49:23.385Z,10.33
2023-05-08T20:51:50.163Z,10.33
2023-05-08T20:54:16.927Z,10.00
2023-05-08T20:56:43.667Z,10.53
2023-05-08T20:59:10.450Z,10.73
2023-05-08T21:01:37.268Z,10.17
2023-05-08T21:04:04.348Z,9.33
2023-05-08T21:06:31.154Z,9.83
2023-05-08T21:08:58.000Z,9.67
2023-05-08T21:11:25.152Z,9.37
2023-05-08T21:13:51.892Z,8.97
2023-05-08T21:16:18.711Z,11.40
2023-05-08T21:18:45.602Z,8.40
2023-05-08T21:21:16.082Z,10.20
2023-05-08T21:23:43.139Z,9.33
2023-05-08T21:26:09.949Z,8.67
2023-05-08T21:28:36.826Z,8.77
2023-05-08T21:31:03.735Z,8.53
2023-05-08T21:33:30.671Z,10.90
2023-05-08T21:35:57.470Z,12.23
2023-05-08T21:38:24.233Z,15.70
2023-05-08T21:40:51.555Z,16.13
2023-05-08T21:43:18.269Z,20.13
2023-05-08T21:45:44.966Z,20.27
2023-05-08T21:48:11.680Z,20.77
2023-05-08T21:50:38.414Z,19.43
2023-05-08T21:53:05.303Z,23.00
2023-05-08T21:55:32.597Z,22.47
2023-05-08T21:57:59.330Z,24.93
2023-05-08T22:00:27.016Z,27.23
2023-05-08T22:02:53.829Z,24.80
2023-05-08T22:05:20.570Z,24.07
2023-05-08T22:07:47.695Z,25.30
2023-05-08T22:10:14.523Z,28.00
2023-05-08T22:12:41.296Z,26.37
2023-05-08T22:15:17.971Z,28.37
2023-05-08T22:17:52.906Z,32.00
2023-05-08T22:20:19.656Z,32.47
2023-05-08T22:22:47.601Z,32.23
2023-05-08T22:25:14.641Z,37.33
2023-05-08T22:27:41.522Z,39.03
2023-05-08T22:30:08.533Z,39.43
2023-05-08T22:32:35.246Z,43.37
2023-05-08T22:35:01.992Z,42.53
2023-05-08T22:37:30.085Z,45.60
2023-05-08T22:39:56.905Z,48.60
2023-05-08T22:42:24.196Z,44.90
2023-05-08T22:44:51.124Z,50.37
2023-05-08T22:47:17.860Z,52.50
2023-05-08T22:49:44.613Z,49.57
2023-05-08T22:52:11.384Z,48.40
2023-05-08T22:54:38.169Z,47.20
2023-05-08T22:57:04.947Z,51.97
2023-05-08T22:59:31.818Z,47.17
2023-05-08T23:01:58.583Z,50.00
2023-05-08T23:04:25.416Z,47.83
2023-05-08T23:06:52.182Z,56.30
2023-05-08T23:09:19.527Z,50.17
2023-05-08T23:11:46.346Z,52.63
2023-05-08T23:14:13.087Z,51.87
2023-05-08T23:16:39.936Z,50.47
2023-05-08T23:19:07.554Z,49.03
2023-05-08T23:21:34.696Z,54.13
2023-05-08T23:24:01.417Z,52.07
2023-05-08T23:26:28.179Z,53.80
2023-05-08T23:28:54.878Z,54.47
2023-05-08T23:31:21.821Z,51.10
2023-05-08T23:33:48.596Z,50.93
2023-05-08T23:36:15.647Z,47.50
2023-05-08T23:38:42.434Z,56.23
2023-05-08T23:41:09.803Z,50.73
2023-05-08T23:43:36.522Z,48.60
2023-05-08T23:46:03.262Z,47.20
2023-05-08T23:48:29.969Z,47.37
2023-05-08T23:50:57.032Z,47.67
2023-05-08T23:53:23.787Z,47.80
2023-05-08T23:55:53.506Z,46.47
2023-05-08T23:58:20.323Z,45.17
